Time;durP1;ratioP1;P1;durP2;ratioP2;P2;SDS_P1;SDS_P2;PMS_P1;PMS_P2;Temp;Humidity;BMP_temperature;BMP_pressure;BME280_temperature;BME280_humidity;BME280_pressure;Samples;Min_cycle;Max_cycle;Signal;HPM_P1;HPM_P2
2023/07/24 00:02:59;;;;;;;8.70;4.38;;;;;;;;;;8233661;28;20046;-90
2023/07/24 00:07:02;;;;;;;7.70;4.30;;;;;;;;;;8234026;28;20448;-89
2023/07/24 00:11:07;;;;;;;7.25;4.03;;;;;;;;;;8233513;28;20051;-83
2023/07/24 00:15:11;;;;;;;8.23;3.95;;;;;;;;;;8233404;28;20050;-88
2023/07/24 00:19:15;;;;;;;8.70;4.38;;;;;;;;;;8233163;28;20467;-90
2023/07/24 00:23:18;;;;;;;9.18;4.55;;;;;;;;;;8233449;28;20503;-89
2023/07/24 00:27:21;;;;;;;7.78;4.18;;;;;;;;;;8232781;28;20082;-91
2023/07/24 00:31:24;;;;;;;7.03;4.22;;;;;;;;;;8233001;28;20133;-91
2023/07/24 00:35:28;;;;;;;9.40;4.35;;;;;;;;;;8232967;28;20126;-87
2023/07/24 00:39:31;;;;;;;9.02;4.50;;;;;;;;;;8233218;28;20467;-87
2023/07/24 00:43:35;;;;;;;8.32;4.05;;;;;;;;;;8232794;28;20480;-82
2023/07/24 00:47:38;;;;;;;7.32;3.92;;;;;;;;;;8233031;28;20468;-90
2023/07/24 00:51:44;;;;;;;8.30;4.47;;;;;;;;;;8232525;28;20055;-89
2023/07/24 00:55:48;;;;;;;8.82;4.57;;;;;;;;;;8232629;28;20446;-91
2023/07/24 00:59:51;;;;;;;6.72;4.00;;;;;;;;;;8227357;28;20126;-84
2023/07/24 01:03:54;;;;;;;8.50;4.78;;;;;;;;;;8220504;28;20054;-84
2023/07/24 01:07:58;;;;;;;7.45;4.22;;;;;;;;;;8226025;28;20467;-86
2023/07/24 01:12:06;;;;;;;7.10;4.57;;;;;;;;;;8223390;28;20050;-82
2023/07/24 01:16:14;;;;;;;8.82;4.28;;;;;;;;;;8211233;28;20547;-90
2023/07/24 01:20:18;;;;;;;7.35;4.68;;;;;;;;;;8216535;28;20057;-91
2023/07/24 01:24:31;;;;;;;7.78;4.90;;;;;;;;;;8213698;28;20050;-91
2023/07/24 01:28:35;;;;;;;7.88;4.43;;;;;;;;;;8227327;28;20043;-89
2023/07/24 01:32:38;;;;;;;7.07;4.18;;;;;;;;;;8224495;28;20063;-86
2023/07/24 01:36:41;;;;;;;7.00;4.50;;;;;;;;;;8213526;28;20174;-84
2023/07/24 01:40:45;;;;;;;11.18;5.30;;;;;;;;;;8221720;28;20101;-84
2023/07/24 01:44:53;;;;;;;7.13;4.53;;;;;;;;;;8231057;28;20043;-83
2023/07/24 01:48:56;;;;;;;7.20;4.63;;;;;;;;;;8213256;28;20484;-85
2023/07/24 01:52:59;;;;;;;8.38;4.63;;;;;;;;;;8215521;28;20129;-84
2023/07/24 01:57:02;;;;;;;9.25;5.30;;;;;;;;;;8231221;28;20503;-83
2023/07/24 02:01:06;;;;;;;7.70;5.15;;;;;;;;;;8231508;28;20133;-82
2023/07/24 02:05:11;;;;;;;8.05;5.15;;;;;;;;;;8218898;28;20513;-85
2023/07/24 02:09:19;;;;;;;7.85;4.80;;;;;;;;;;8219168;28;20047;-91
2023/07/24 02:17:26;;;;;;;8.93;5.20;;;;;;;;;;8218157;28;20078;-83
2023/07/24 02:21:29;;;;;;;8.13;4.78;;;;;;;;;;8232426;28;20142;-82
2023/07/24 02:25:32;;;;;;;9.27;4.80;;;;;;;;;;8224665;28;20054;-85
2023/07/24 02:29:35;;;;;;;8.68;4.75;;;;;;;;;;8236604;28;20476;-82
2023/07/24 02:33:39;;;;;;;8.65;5.28;;;;;;;;;;8236752;28;20050;-91
2023/07/24 02:37:42;;;;;;;10.60;4.95;;;;;;;;;;8236305;28;20121;-91
2023/07/24 02:41:45;;;;;;;10.85;5.80;;;;;;;;;;8236555;28;20096;-84
2023/07/24 02:45:48;;;;;;;8.98;5.10;;;;;;;;;;8235995;28;20128;-85
2023/07/24 02:49:52;;;;;;;9.38;5.40;;;;;;;;;;8236141;28;20407;-89
2023/07/24 02:53:55;;;;;;;9.70;5.60;;;;;;;;;;8236358;28;20054;-86
2023/07/24 02:57:58;;;;;;;8.85;5.20;;;;;;;;;;8235754;28;20384;-91
2023/07/24 03:02:01;;;;;;;10.35;5.60;;;;;;;;;;8229786;28;20051;-83
2023/07/24 03:06:05;;;;;;;9.95;5.50;;;;;;;;;;8229138;28;20056;-86
2023/07/24 03:10:09;;;;;;;11.10;5.97;;;;;;;;;;8222720;28;20051;-88
2023/07/24 03:14:12;;;;;;;10.68;6.13;;;;;;;;;;8235433;28;20482;-90
2023/07/24 03:18:14;;;;;;;9.05;6.15;;;;;;;;;;8235371;28;20046;-88
2023/07/24 03:22:19;;;;;;;9.35;5.93;;;;;;;;;;8234727;28;20055;-90
2023/07/24 03:26:21;;;;;;;12.20;5.80;;;;;;;;;;8221981;28;20317;-81
2023/07/24 03:30:24;;;;;;;10.68;6.00;;;;;;;;;;8235540;28;20518;-87
2023/07/24 03:34:27;;;;;;;11.93;6.30;;;;;;;;;;8234869;28;20049;-85
2023/07/24 03:38:31;;;;;;;9.82;6.15;;;;;;;;;;8234452;28;20407;-90
2023/07/24 03:42:34;;;;;;;9.57;5.90;;;;;;;;;;8221519;28;20088;-90
2023/07/24 03:46:37;;;;;;;14.82;6.13;;;;;;;;;;8234189;28;20047;-90
2023/07/24 03:50:42;;;;;;;11.05;6.10;;;;;;;;;;8233862;28;20118;-88
2023/07/24 03:54:46;;;;;;;10.93;5.90;;;;;;;;;;8233872;28;20050;-85
2023/07/24 03:58:49;;;;;;;10.27;6.18;;;;;;;;;;8233604;28;20141;-90
2023/07/24 04:02:52;;;;;;;8.65;5.60;;;;;;;;;;8233997;28;20046;-89
2023/07/24 04:06:55;;;;;;;9.90;5.82;;;;;;;;;;8221195;28;20050;-90
2023/07/24 04:10:59;;;;;;;8.65;5.90;;;;;;;;;;8234084;28;20093;-82
2023/07/24 04:15:02;;;;;;;8.57;5.43;;;;;;;;;;8221204;28;20062;-90
2023/07/24 04:19:05;;;;;;;9.35;5.45;;;;;;;;;;8233481;28;20125;-84
2023/07/24 04:23:08;;;;;;;13.23;6.05;;;;;;;;;;8220925;28;20407;-90
2023/07/24 04:27:12;;;;;;;14.48;5.95;;;;;;;;;;8234017;28;20110;-90
2023/07/24 04:31:15;;;;;;;14.43;6.10;;;;;;;;;;8222902;28;20050;-90
2023/07/24 04:35:18;;;;;;;9.70;6.63;;;;;;;;;;8234029;28;20510;-83
2023/07/24 04:39:21;;;;;;;12.65;6.00;;;;;;;;;;8233094;28;20043;-90
2023/07/24 04:43:25;;;;;;;7.97;5.13;;;;;;;;;;8229187;28;20066;-85
2023/07/24 04:47:28;;;;;;;9.95;5.47;;;;;;;;;;8232582;28;20065;-91
2023/07/24 04:51:30;;;;;;;11.68;6.30;;;;;;;;;;8232249;28;20049;-90
2023/07/24 04:55:33;;;;;;;8.57;5.68;;;;;;;;;;8232245;28;20129;-91
2023/07/24 04:59:39;;;;;;;7.07;4.93;;;;;;;;;;8232360;28;20117;-91
2023/07/24 05:03:41;;;;;;;8.77;5.70;;;;;;;;;;8232486;28;20054;-85
2023/07/24 05:07:44;;;;;;;9.50;5.32;;;;;;;;;;8232591;28;20432;-90
2023/07/24 05:11:47;;;;;;;8.50;5.25;;;;;;;;;;8232359;28;20392;-87
2023/07/24 05:15:51;;;;;;;9.25;5.85;;;;;;;;;;8232193;28;20082;-82
2023/07/24 05:19:54;;;;;;;8.88;5.00;;;;;;;;;;8232080;28;20138;-84
2023/07/24 05:23:57;;;;;;;8.63;5.45;;;;;;;;;;8232364;28;20173;-92
2023/07/24 05:27:59;;;;;;;8.73;5.47;;;;;;;;;;8229253;28;20061;-91
2023/07/24 05:32:04;;;;;;;7.28;4.68;;;;;;;;;;8232592;28;20129;-90
2023/07/24 05:36:07;;;;;;;8.75;5.05;;;;;;;;;;8230024;28;20139;-91
2023/07/24 05:40:10;;;;;;;9.93;5.75;;;;;;;;;;8231758;28;20090;-88
2023/07/24 05:44:13;;;;;;;7.82;4.85;;;;;;;;;;8230259;28;20475;-91
2023/07/24 05:48:17;;;;;;;9.63;4.78;;;;;;;;;;8236513;28;20068;-83
2023/07/24 05:52:20;;;;;;;9.05;5.28;;;;;;;;;;8237657;28;20057;-90
2023/07/24 05:56:23;;;;;;;7.85;4.68;;;;;;;;;;8237596;28;20039;-91
2023/07/24 06:00:25;;;;;;;6.07;4.20;;;;;;;;;;8237517;28;20054;-88
2023/07/24 06:04:30;;;;;;;7.20;4.32;;;;;;;;;;8236864;28;20513;-87
2023/07/24 06:08:32;;;;;;;8.57;4.47;;;;;;;;;;8236970;28;20189;-87
2023/07/24 06:12:35;;;;;;;5.63;4.03;;;;;;;;;;8236109;28;20039;-91
2023/07/24 06:16:39;;;;;;;6.85;4.20;;;;;;;;;;8237191;28;20085;-93
2023/07/24 06:20:43;;;;;;;6.50;4.30;;;;;;;;;;8236880;28;20406;-84
2023/07/24 06:24:46;;;;;;;7.53;4.32;;;;;;;;;;8236785;28;20058;-86
2023/07/24 06:28:49;;;;;;;6.72;3.75;;;;;;;;;;8236871;28;20519;-92
2023/07/24 06:32:52;;;;;;;6.43;3.80;;;;;;;;;;8237215;28;20050;-90
2023/07/24 06:36:57;;;;;;;9.75;4.22;;;;;;;;;;8236393;28;20057;-91
2023/07/24 06:41:00;;;;;;;10.70;3.67;;;;;;;;;;8236414;28;20550;-91
2023/07/24 06:45:03;;;;;;;5.53;3.40;;;;;;;;;;8236054;28;20055;-92
2023/07/24 06:49:06;;;;;;;7.03;3.60;;;;;;;;;;8223158;28;20057;-89
2023/07/24 06:53:10;;;;;;;6.75;3.42;;;;;;;;;;8236250;28;20046;-86
2023/07/24 06:57:13;;;;;;;5.95;3.58;;;;;;;;;;8235504;28;20579;-83
2023/07/24 07:01:16;;;;;;;7.90;4.13;;;;;;;;;;8235926;28;20120;-86
2023/07/24 07:05:19;;;;;;;4.38;3.03;;;;;;;;;;8222699;28;20503;-91
2023/07/24 07:09:23;;;;;;;4.97;3.08;;;;;;;;;;8229679;28;20066;-92
2023/07/24 07:13:26;;;;;;;6.45;3.25;;;;;;;;;;8223339;28;20067;-91
2023/07/24 07:17:29;;;;;;;4.80;3.00;;;;;;;;;;8235139;28;20058;-91
2023/07/24 07:21:32;;;;;;;4.57;2.80;;;;;;;;;;8235214;28;20081;-87
2023/07/24 07:25:37;;;;;;;4.65;2.85;;;;;;;;;;8234841;28;20043;-93
2023/07/24 07:29:39;;;;;;;4.53;3.17;;;;;;;;;;8228469;28;20054;-92
2023/07/24 07:33:42;;;;;;;6.30;3.20;;;;;;;;;;8228588;28;20055;-86
2023/07/24 07:37:45;;;;;;;5.13;3.15;;;;;;;;;;8222129;28;20055;-92
2023/07/24 07:41:49;;;;;;;4.18;3.00;;;;;;;;;;8234500;28;20057;-93
2023/07/24 07:45:52;;;;;;;4.93;3.97;;;;;;;;;;8221809;28;20077;-86
2023/07/24 07:49:55;;;;;;;7.47;3.42;;;;;;;;;;8234272;28;20071;-92
2023/07/24 07:53:58;;;;;;;5.13;3.10;;;;;;;;;;8233991;28;20122;-88
2023/07/24 07:58:02;;;;;;;7.55;4.47;;;;;;;;;;8233976;28;20047;-91
2023/07/24 08:02:05;;;;;;;4.45;2.72;;;;;;;;;;8233603;28;20047;-93
2023/07/24 08:06:09;;;;;;;4.72;2.90;;;;;;;;;;8229094;28;20081;-86
2023/07/24 08:10:14;;;;;;;5.72;2.72;;;;;;;;;;8229160;28;20050;-86
2023/07/24 08:14:19;;;;;;;5.95;2.80;;;;;;;;;;8228693;28;20088;-89
2023/07/24 08:18:25;;;;;;;5.22;3.40;;;;;;;;;;8229473;28;20130;-90
2023/07/24 08:22:28;;;;;;;5.45;3.00;;;;;;;;;;8227649;28;20506;-92
2023/07/24 08:26:31;;;;;;;4.75;3.08;;;;;;;;;;8229286;28;20046;-86
2023/07/24 08:30:37;;;;;;;4.80;3.10;;;;;;;;;;8228588;28;20814;-87
2023/07/24 08:34:40;;;;;;;4.72;3.20;;;;;;;;;;8228174;28;20153;-91
2023/07/24 08:38:43;;;;;;;6.03;3.50;;;;;;;;;;8228530;28;20058;-86
2023/07/24 08:42:50;;;;;;;5.18;3.42;;;;;;;;;;8228004;28;20422;-92
2023/07/24 08:46:55;;;;;;;7.20;3.42;;;;;;;;;;8240573;28;20051;-85
2023/07/24 08:51:01;;;;;;;5.15;3.38;;;;;;;;;;8227904;28;20066;-92
2023/07/24 08:55:05;;;;;;;6.50;3.22;;;;;;;;;;8227467;28;20050;-89
2023/07/24 08:59:08;;;;;;;5.45;3.50;;;;;;;;;;8226203;28;20086;-87
2023/07/24 09:03:13;;;;;;;8.60;3.50;;;;;;;;;;8226628;28;20050;-92
2023/07/24 09:07:15;;;;;;;5.22;3.15;;;;;;;;;;8219497;28;20112;-87
2023/07/24 09:11:18;;;;;;;5.65;3.42;;;;;;;;;;8226577;28;20059;-92
2023/07/24 09:15:24;;;;;;;5.68;3.30;;;;;;;;;;8226865;28;20162;-84
2023/07/24 09:19:29;;;;;;;6.95;3.65;;;;;;;;;;8214702;28;20069;-92
2023/07/24 09:23:32;;;;;;;6.18;3.70;;;;;;;;;;8231416;28;20265;-91
2023/07/24 09:27:35;;;;;;;8.95;3.40;;;;;;;;;;8214971;28;20090;-88
2023/07/24 09:31:38;;;;;;;6.57;4.05;;;;;;;;;;8227000;28;20113;-90
2023/07/24 09:35:42;;;;;;;7.25;3.60;;;;;;;;;;8233224;28;20481;-85
2023/07/24 09:39:48;;;;;;;7.82;3.75;;;;;;;;;;8233333;28;20615;-90
2023/07/24 09:43:59;;;;;;;6.40;4.10;;;;;;;;;;8233989;28;20620;-89
2023/07/24 09:48:02;;;;;;;7.90;4.15;;;;;;;;;;8232556;28;20058;-89
2023/07/24 09:52:10;;;;;;;6.65;4.30;;;;;;;;;;8233084;28;20177;-86
2023/07/24 09:56:14;;;;;;;7.75;3.92;;;;;;;;;;8232304;28;20082;-90
2023/07/24 10:00:18;;;;;;;6.75;3.67;;;;;;;;;;8232468;28;20047;-88
2023/07/24 10:04:24;;;;;;;5.55;3.80;;;;;;;;;;8232279;28;20081;-92
2023/07/24 10:08:29;;;;;;;6.43;4.05;;;;;;;;;;8232502;28;20102;-92
2023/07/24 10:12:33;;;;;;;5.78;3.85;;;;;;;;;;8232686;28;20582;-87
2023/07/24 10:16:36;;;;;;;5.85;3.67;;;;;;;;;;8231315;28;20059;-91
2023/07/24 10:20:40;;;;;;;6.88;4.00;;;;;;;;;;8232169;28;20129;-89
2023/07/24 10:24:45;;;;;;;8.07;3.83;;;;;;;;;;8231600;28;20443;-92
2023/07/24 10:28:49;;;;;;;7.43;3.92;;;;;;;;;;8231603;28;20047;-88
2023/07/24 10:32:52;;;;;;;7.70;3.75;;;;;;;;;;8222703;28;20498;-92
2023/07/24 10:37:04;;;;;;;9.70;4.38;;;;;;;;;;8224150;28;20054;-87
2023/07/24 10:41:10;;;;;;;5.88;3.75;;;;;;;;;;8223184;28;20057;-89
2023/07/24 10:45:14;;;;;;;6.40;4.18;;;;;;;;;;8220327;28;20051;-89
2023/07/24 10:49:24;;;;;;;6.18;4.05;;;;;;;;;;8230855;28;20039;-90
2023/07/24 10:53:28;;;;;;;6.63;4.05;;;;;;;;;;8230132;28;20490;-92
2023/07/24 10:57:32;;;;;;;6.40;3.55;;;;;;;;;;8228922;28;20201;-88
2023/07/24 11:01:35;;;;;;;8.63;3.92;;;;;;;;;;8225376;28;20051;-89
2023/07/24 11:05:41;;;;;;;8.55;4.18;;;;;;;;;;8233580;28;20125;-88
2023/07/24 11:09:43;;;;;;;9.25;4.13;;;;;;;;;;8225363;28;20053;-88
2023/07/24 11:13:48;;;;;;;7.68;4.43;;;;;;;;;;8232928;28;20703;-89
2023/07/24 11:17:51;;;;;;;6.90;3.95;;;;;;;;;;8226024;28;20129;-88
2023/07/24 11:21:54;;;;;;;8.90;4.35;;;;;;;;;;8234851;28;20130;-86
2023/07/24 11:25:57;;;;;;;7.22;4.22;;;;;;;;;;8234903;28;20467;-89
2023/07/24 11:30:01;;;;;;;9.30;4.15;;;;;;;;;;8234573;28;20125;-90
2023/07/24 11:34:04;;;;;;;6.75;4.40;;;;;;;;;;8234351;28;20070;-84
2023/07/24 11:38:09;;;;;;;7.07;4.40;;;;;;;;;;8234514;28;20058;-88
2023/07/24 11:42:12;;;;;;;9.07;4.78;;;;;;;;;;8234430;28;20527;-90
2023/07/24 11:46:25;;;;;;;9.13;4.40;;;;;;;;;;8233224;28;20047;-90
2023/07/24 11:50:28;;;;;;;9.43;4.78;;;;;;;;;;8233265;28;20180;-90
2023/07/24 11:54:31;;;;;;;9.95;5.03;;;;;;;;;;8231007;28;20043;-87
2023/07/24 11:58:35;;;;;;;7.00;4.72;;;;;;;;;;8233158;28;20101;-92
2023/07/24 12:02:39;;;;;;;8.25;5.13;;;;;;;;;;8233791;28;20043;-86
2023/07/24 12:06:43;;;;;;;8.30;4.85;;;;;;;;;;8231839;28;20047;-86
2023/07/24 12:10:46;;;;;;;8.10;5.13;;;;;;;;;;8232154;28;20047;-88
2023/07/24 12:14:49;;;;;;;7.80;5.00;;;;;;;;;;8219066;28;20061;-89
2023/07/24 12:18:53;;;;;;;7.80;5.03;;;;;;;;;;8225251;28;20058;-90
2023/07/24 12:22:56;;;;;;;9.73;5.43;;;;;;;;;;8231179;28;20097;-91
2023/07/24 12:26:59;;;;;;;7.93;5.47;;;;;;;;;;8231309;28;20158;-91
2023/07/24 12:31:03;;;;;;;17.05;5.75;;;;;;;;;;8231970;28;20047;-90
2023/07/24 12:35:09;;;;;;;8.90;5.70;;;;;;;;;;8231794;28;20046;-85
2023/07/24 12:39:12;;;;;;;9.70;5.13;;;;;;;;;;8232252;28;20129;-91
2023/07/24 12:43:16;;;;;;;8.90;5.50;;;;;;;;;;8230819;28;20047;-85
2023/07/24 12:47:19;;;;;;;8.90;5.05;;;;;;;;;;8215984;28;20426;-86
2023/07/24 12:51:24;;;;;;;12.00;5.70;;;;;;;;;;8220963;28;20125;-86
2023/07/24 12:55:29;;;;;;;7.50;5.50;;;;;;;;;;8218370;28;20078;-85
2023/07/24 12:59:32;;;;;;;12.82;6.13;;;;;;;;;;8227626;28;20471;-91
2023/07/24 13:03:35;;;;;;;8.68;5.47;;;;;;;;;;8226574;28;20047;-88
2023/07/24 13:07:40;;;;;;;9.35;5.35;;;;;;;;;;8218051;28;20079;-86
2023/07/24 13:11:43;;;;;;;11.85;6.20;;;;;;;;;;8215776;28;20062;-87
2023/07/24 13:15:45;;;;;;;10.57;5.70;;;;;;;;;;8215602;28;20082;-87
2023/07/24 13:19:48;;;;;;;11.20;6.15;;;;;;;;;;8231020;28;20042;-90
2023/07/24 13:23:53;;;;;;;10.45;5.63;;;;;;;;;;8232266;28;20047;-86
2023/07/24 13:27:55;;;;;;;8.82;5.70;;;;;;;;;;8220185;28;20081;-91
2023/07/24 13:31:59;;;;;;;9.40;6.13;;;;;;;;;;8219654;28;20090;-90
2023/07/24 13:36:02;;;;;;;8.32;5.63;;;;;;;;;;8235160;28;20043;-91
2023/07/24 13:40:08;;;;;;;11.25;5.75;;;;;;;;;;8227857;28;20050;-91
2023/07/24 13:44:13;;;;;;;10.25;5.07;;;;;;;;;;8226751;28;20051;-89
2023/07/24 13:48:16;;;;;;;8.63;5.30;;;;;;;;;;8210448;28;20073;-87
2023/07/24 13:52:19;;;;;;;9.80;5.65;;;;;;;;;;8224525;28;20085;-87
2023/07/24 13:56:24;;;;;;;10.00;6.00;;;;;;;;;;8225660;28;20667;-86
2023/07/24 14:00:28;;;;;;;8.82;5.50;;;;;;;;;;8227530;28;20454;-85
2023/07/24 14:04:31;;;;;;;8.95;5.60;;;;;;;;;;8230100;28;20455;-86
2023/07/24 14:08:34;;;;;;;11.77;6.00;;;;;;;;;;8235219;28;20043;-87
2023/07/24 14:12:39;;;;;;;9.35;6.10;;;;;;;;;;8227994;28;20043;-87
2023/07/24 14:16:42;;;;;;;11.95;6.18;;;;;;;;;;8228595;28;20054;-91
2023/07/24 14:20:47;;;;;;;8.95;5.93;;;;;;;;;;8231868;28;20082;-89
2023/07/24 14:24:50;;;;;;;11.07;5.78;;;;;;;;;;8232415;28;20570;-91
2023/07/24 14:28:57;;;;;;;11.88;6.13;;;;;;;;;;8230806;28;20109;-89
2023/07/24 14:33:00;;;;;;;13.55;7.22;;;;;;;;;;8231901;28;20058;-91
2023/07/24 14:37:05;;;;;;;11.73;6.15;;;;;;;;;;8231511;28;20058;-86
2023/07/24 14:41:08;;;;;;;9.40;5.82;;;;;;;;;;8225228;28;20058;-89
2023/07/24 14:45:13;;;;;;;9.68;6.35;;;;;;;;;;8234131;28;20051;-89
2023/07/24 14:49:17;;;;;;;10.38;6.35;;;;;;;;;;8224276;28;20130;-89
2023/07/24 14:53:21;;;;;;;10.57;6.28;;;;;;;;;;8223782;28;20105;-88
2023/07/24 14:57:24;;;;;;;9.98;6.05;;;;;;;;;;8230559;28;20061;-91
2023/07/24 15:01:29;;;;;;;9.23;5.65;;;;;;;;;;8230484;28;20082;-92
2023/07/24 15:05:33;;;;;;;9.98;6.45;;;;;;;;;;8231050;28;20058;-87
2023/07/24 15:09:37;;;;;;;8.13;5.25;;;;;;;;;;8231166;28;20067;-88
2023/07/24 15:13:43;;;;;;;10.73;6.28;;;;;;;;;;8227900;28;20761;-89
2023/07/24 15:17:49;;;;;;;9.48;6.68;;;;;;;;;;8229397;28;20047;-91
2023/07/24 15:21:55;;;;;;;10.27;6.10;;;;;;;;;;8222499;28;20054;-91
2023/07/24 15:26:01;;;;;;;10.85;6.00;;;;;;;;;;8223751;28;20134;-86
2023/07/24 15:30:05;;;;;;;11.13;6.03;;;;;;;;;;8237154;28;20054;-90
2023/07/24 15:34:11;;;;;;;9.30;6.35;;;;;;;;;;8234837;28;20050;-87
2023/07/24 15:38:15;;;;;;;13.52;6.95;;;;;;;;;;8214771;28;20478;-88
2023/07/24 15:42:20;;;;;;;10.85;6.70;;;;;;;;;;8228569;28;20049;-90
2023/07/24 15:46:24;;;;;;;11.90;6.75;;;;;;;;;;8228857;28;20046;-89
2023/07/24 15:50:29;;;;;;;12.15;7.30;;;;;;;;;;8228220;28;20050;-88
2023/07/24 15:54:32;;;;;;;10.50;6.57;;;;;;;;;;8226897;28;20038;-90
2023/07/24 15:58:37;;;;;;;10.73;6.50;;;;;;;;;;8228998;28;20081;-91
2023/07/24 16:02:40;;;;;;;14.18;7.07;;;;;;;;;;8228625;28;20047;-88
2023/07/24 16:06:46;;;;;;;10.45;6.85;;;;;;;;;;8228826;28;20058;-86
2023/07/24 16:10:52;;;;;;;10.95;6.65;;;;;;;;;;8229350;28;20043;-90
2023/07/24 16:14:55;;;;;;;15.02;7.72;;;;;;;;;;8215302;28;20421;-90
2023/07/24 16:19:20;;;;;;;13.13;7.05;;;;;;;;;;8212519;28;20042;-88
2023/07/24 16:23:25;;;;;;;11.50;6.70;;;;;;;;;;8225849;28;20460;-91
2023/07/24 16:27:28;;;;;;;10.50;6.30;;;;;;;;;;8229557;28;20642;-90
2023/07/24 16:31:31;;;;;;;11.50;6.57;;;;;;;;;;8219080;28;20126;-87
2023/07/24 16:35:34;;;;;;;9.40;5.70;;;;;;;;;;8220850;28;20058;-91
2023/07/24 16:39:54;;;;;;;12.27;7.13;;;;;;;;;;8214950;28;20068;-90
2023/07/24 16:43:58;;;;;;;11.80;6.83;;;;;;;;;;8210677;28;20054;-90
2023/07/24 16:48:02;;;;;;;10.55;6.68;;;;;;;;;;8224532;28;20073;-87
2023/07/24 16:52:06;;;;;;;11.10;6.43;;;;;;;;;;8216168;28;20050;-91
2023/07/24 16:56:12;;;;;;;10.88;6.45;;;;;;;;;;8225986;28;20078;-89
2023/07/24 17:00:17;;;;;;;10.77;6.75;;;;;;;;;;8226376;28;20046;-90
2023/07/24 17:04:20;;;;;;;12.00;6.95;;;;;;;;;;8227150;28;20047;-90
2023/07/24 17:08:24;;;;;;;12.38;6.88;;;;;;;;;;8219291;28;20046;-87
2023/07/24 17:12:31;;;;;;;15.32;7.93;;;;;;;;;;8220887;28;20070;-88
2023/07/24 17:16:34;;;;;;;13.75;7.80;;;;;;;;;;8223819;28;20069;-87
2023/07/24 17:20:38;;;;;;;16.02;8.48;;;;;;;;;;8218971;28;20059;-91
2023/07/24 17:24:41;;;;;;;12.57;8.10;;;;;;;;;;8228477;28;20051;-88
2023/07/24 17:28:49;;;;;;;16.08;8.40;;;;;;;;;;8230174;28;20118;-87
2023/07/24 17:32:52;;;;;;;13.00;6.93;;;;;;;;;;8226996;28;20055;-89
2023/07/24 17:41:40;;;;;;;10.63;7.28;;;;;;;;;;8219223;28;20466;-90
2023/07/24 17:45:50;;;;;;;15.70;7.25;;;;;;;;;;8233356;28;20066;-85
2023/07/24 17:49:57;;;;;;;12.20;7.47;;;;;;;;;;8245958;28;20102;-89
2023/07/24 17:54:02;;;;;;;15.95;7.68;;;;;;;;;;8232890;28;20404;-90
2023/07/24 17:58:07;;;;;;;15.88;7.57;;;;;;;;;;8231213;28;20050;-86
2023/07/24 18:02:20;;;;;;;15.30;7.53;;;;;;;;;;8221820;28;20072;-85
2023/07/24 18:06:37;;;;;;;15.43;7.80;;;;;;;;;;8230004;28;20479;-87
2023/07/24 18:11:10;;;;;;;15.90;8.05;;;;;;;;;;8229885;28;20097;-87
2023/07/24 18:15:21;;;;;;;14.77;8.07;;;;;;;;;;8233707;28;20062;-91
2023/07/24 18:19:32;;;;;;;13.98;9.38;;;;;;;;;;8235924;28;20046;-85
2023/07/24 18:23:44;;;;;;;17.27;10.60;;;;;;;;;;8235587;28;20042;-84
2023/07/24 18:27:51;;;;;;;17.13;10.00;;;;;;;;;;8237013;28;20049;-90
2023/07/24 18:31:56;;;;;;;16.45;9.73;;;;;;;;;;8236500;28;20054;-86
2023/07/24 18:36:05;;;;;;;16.55;9.63;;;;;;;;;;8236873;28;20472;-87
2023/07/24 18:40:12;;;;;;;17.08;9.38;;;;;;;;;;8237440;28;20131;-91
2023/07/24 18:44:16;;;;;;;18.98;9.93;;;;;;;;;;8211266;28;20141;-86
2023/07/24 18:48:27;;;;;;;17.25;9.32;;;;;;;;;;8236660;28;20046;-88
2023/07/24 18:52:35;;;;;;;15.93;9.40;;;;;;;;;;8224724;28;20054;-85
2023/07/24 18:56:42;;;;;;;19.48;10.32;;;;;;;;;;8235833;28;20051;-88
2023/07/24 19:00:47;;;;;;;19.15;10.43;;;;;;;;;;8237051;28;20073;-89
2023/07/24 19:04:52;;;;;;;15.93;9.68;;;;;;;;;;8223904;28;20058;-88
2023/07/24 19:09:00;;;;;;;34.45;14.38;;;;;;;;;;8237916;28;20055;-84
2023/07/24 19:13:08;;;;;;;14.98;9.13;;;;;;;;;;8237870;28;20047;-87
2023/07/24 19:17:13;;;;;;;14.00;8.75;;;;;;;;;;8237313;28;20121;-87
2023/07/24 19:21:16;;;;;;;16.10;8.73;;;;;;;;;;8236259;28;20125;-91
2023/07/24 19:25:21;;;;;;;15.30;8.88;;;;;;;;;;8236540;28;20101;-90
2023/07/24 19:29:29;;;;;;;19.60;8.98;;;;;;;;;;8235154;28;20051;-89
2023/07/24 19:33:40;;;;;;;14.85;8.18;;;;;;;;;;8235005;28;20404;-88
2023/07/24 19:37:45;;;;;;;16.00;9.23;;;;;;;;;;8234417;28;20710;-89
2023/07/24 19:41:53;;;;;;;20.02;8.73;;;;;;;;;;8233999;28;20106;-89
2023/07/24 19:45:57;;;;;;;14.80;8.13;;;;;;;;;;8222635;28;20047;-89
2023/07/24 19:50:03;;;;;;;15.18;7.70;;;;;;;;;;8234421;28;20051;-90
2023/07/24 19:54:07;;;;;;;13.55;7.53;;;;;;;;;;8234658;28;20057;-89
2023/07/24 19:58:26;;;;;;;14.95;7.63;;;;;;;;;;8233870;28;20058;-89
2023/07/24 20:02:32;;;;;;;12.15;6.93;;;;;;;;;;8234242;28;20043;-84
2023/07/24 20:06:38;;;;;;;10.68;6.95;;;;;;;;;;8233158;28;20043;-83
2023/07/24 20:10:41;;;;;;;11.88;6.55;;;;;;;;;;8233703;28;20050;-89
2023/07/24 20:14:47;;;;;;;13.02;6.65;;;;;;;;;;8233447;28;20105;-87
2023/07/24 20:18:52;;;;;;;13.55;7.53;;;;;;;;;;8233528;28;20130;-89
2023/07/24 20:23:01;;;;;;;12.13;7.10;;;;;;;;;;8233222;28;20043;-90
2023/07/24 20:27:07;;;;;;;18.77;10.13;;;;;;;;;;8232410;28;20130;-89
2023/07/24 20:31:14;;;;;;;13.48;7.30;;;;;;;;;;8233234;28;20134;-89
2023/07/24 20:35:18;;;;;;;12.02;6.90;;;;;;;;;;8233148;28;20047;-89
2023/07/24 20:39:22;;;;;;;11.60;6.95;;;;;;;;;;8220021;28;20038;-87
2023/07/24 20:43:26;;;;;;;12.68;7.15;;;;;;;;;;8233214;28;20054;-89
2023/07/24 20:47:32;;;;;;;12.77;7.22;;;;;;;;;;8219817;28;20050;-85
2023/07/24 20:51:36;;;;;;;12.77;7.53;;;;;;;;;;8232663;28;20043;-88
2023/07/24 20:55:39;;;;;;;11.88;7.30;;;;;;;;;;8232332;28;20487;-89
2023/07/24 20:59:43;;;;;;;13.63;7.63;;;;;;;;;;8232437;28;20566;-87
2023/07/24 21:03:47;;;;;;;14.70;8.15;;;;;;;;;;8232481;28;20415;-90
2023/07/24 21:07:50;;;;;;;13.93;9.20;;;;;;;;;;8232463;28;20050;-88
2023/07/24 21:11:53;;;;;;;16.05;7.60;;;;;;;;;;8232031;28;20121;-90
2023/07/24 21:15:56;;;;;;;13.05;8.18;;;;;;;;;;8232121;28;20090;-91
2023/07/24 21:20:00;;;;;;;16.58;9.15;;;;;;;;;;8237857;28;20042;-86
2023/07/24 21:24:03;;;;;;;15.93;9.70;;;;;;;;;;8240082;28;20054;-89
2023/07/24 21:28:06;;;;;;;20.27;10.82;;;;;;;;;;8238538;28;20050;-90
2023/07/24 21:32:09;;;;;;;14.90;8.80;;;;;;;;;;8238803;28;20050;-89
2023/07/24 21:36:13;;;;;;;15.18;9.05;;;;;;;;;;8238342;28;20050;-89
2023/07/24 21:40:16;;;;;;;15.52;9.48;;;;;;;;;;8238185;28;20129;-84
2023/07/24 21:44:19;;;;;;;14.88;8.90;;;;;;;;;;8238775;28;20470;-90
2023/07/24 21:48:21;;;;;;;15.23;9.38;;;;;;;;;;8236799;28;20106;-89
2023/07/24 21:52:26;;;;;;;18.60;10.65;;;;;;;;;;8238298;28;20468;-89
2023/07/24 21:56:29;;;;;;;17.63;9.70;;;;;;;;;;8237949;28;20129;-88
2023/07/24 22:00:32;;;;;;;15.30;9.32;;;;;;;;;;8236406;28;20535;-88
2023/07/24 22:04:34;;;;;;;15.93;10.07;;;;;;;;;;8236533;28;20511;-83
2023/07/24 22:08:39;;;;;;;14.05;8.85;;;;;;;;;;8236717;28;20078;-88
2023/07/24 22:12:42;;;;;;;16.23;9.00;;;;;;;;;;8237246;28;20137;-88
2023/07/24 22:16:45;;;;;;;16.33;8.98;;;;;;;;;;8237085;28;20133;-89
2023/07/24 22:20:48;;;;;;;15.10;9.40;;;;;;;;;;8236849;28;20511;-90
2023/07/24 22:24:52;;;;;;;13.48;8.60;;;;;;;;;;8236714;28;20137;-89
2023/07/24 22:28:55;;;;;;;19.17;9.82;;;;;;;;;;8236273;28;20117;-86
2023/07/24 22:32:58;;;;;;;13.57;8.15;;;;;;;;;;8236879;28;20043;-90
2023/07/24 22:37:01;;;;;;;14.43;8.38;;;;;;;;;;8236357;28;20057;-84
2023/07/24 22:41:12;;;;;;;13.35;8.20;;;;;;;;;;8234338;28;20142;-85
2023/07/24 22:45:15;;;;;;;13.80;8.10;;;;;;;;;;8228928;28;20066;-86
2023/07/24 22:49:18;;;;;;;12.10;7.82;;;;;;;;;;8228870;28;20046;-84
2023/07/24 22:53:21;;;;;;;12.10;7.63;;;;;;;;;;8224813;28;20038;-85
2023/07/24 22:57:26;;;;;;;13.52;7.63;;;;;;;;;;8235177;28;20126;-85
2023/07/24 23:01:33;;;;;;;11.68;7.60;;;;;;;;;;8235384;28;20552;-90
2023/07/24 23:05:36;;;;;;;12.45;7.00;;;;;;;;;;8234464;28;20070;-85
2023/07/24 23:09:38;;;;;;;14.18;7.45;;;;;;;;;;8220247;28;20074;-84
2023/07/24 23:13:43;;;;;;;13.10;7.45;;;;;;;;;;8222440;28;20066;-87
2023/07/24 23:17:46;;;;;;;11.95;6.97;;;;;;;;;;8225420;28;20046;-89
2023/07/24 23:21:49;;;;;;;11.68;7.22;;;;;;;;;;8217861;28;20174;-89
2023/07/24 23:25:52;;;;;;;12.07;6.95;;;;;;;;;;8218076;28;20129;-84
2023/07/24 23:29:56;;;;;;;12.95;7.22;;;;;;;;;;8229730;28;20490;-84
2023/07/24 23:34:00;;;;;;;12.80;6.85;;;;;;;;;;8233687;28;20046;-88
2023/07/24 23:38:03;;;;;;;13.40;7.22;;;;;;;;;;8225797;28;20070;-86
2023/07/24 23:42:07;;;;;;;10.68;6.68;;;;;;;;;;8219876;28;20205;-85
2023/07/24 23:46:12;;;;;;;11.80;6.82;;;;;;;;;;8216803;28;20481;-85
2023/07/24 23:50:15;;;;;;;11.07;6.25;;;;;;;;;;8230122;28;20545;-87
2023/07/24 23:54:17;;;;;;;19.17;7.78;;;;;;;;;;8233567;28;20109;-86
2023/07/24 23:58:20;;;;;;;9.85;6.00;;;;;;;;;;8232870;28;20039;-90
